sensor_id;sensor_type;location;lat;lon;timestamp;P1;durP1;ratioP1;P2;durP2;ratioP2
70927;SDS011;58587;53.034;18.576;2023-03-01T15:17:33;13.35;;;7.47;;
70927;SDS011;58587;53.034;18.576;2023-03-01T15:20:03;12.80;;;6.80;;
70927;SDS011;58587;53.034;18.576;2023-03-01T15:22:31;12.85;;;6.80;;
70927;SDS011;58587;53.034;18.576;2023-03-01T15:24:57;13.47;;;6.73;;
70927;SDS011;58587;53.034;18.576;2023-03-01T15:27:23;13.10;;;7.20;;
70927;SDS011;58587;53.034;18.576;2023-03-01T15:32:30;15.18;;;7.53;;
70927;SDS011;58587;53.034;18.576;2023-03-01T15:34:57;16.80;;;7.82;;
70927;SDS011;58587;53.034;18.576;2023-03-01T15:37:45;18.80;;;8.35;;
70927;SDS011;58587;53.034;18.576;2023-03-01T15:40:18;15.18;;;8.30;;
70927;SDS011;58587;53.034;18.576;2023-03-01T15:42:56;16.58;;;8.23;;
70927;SDS011;58587;53.034;18.576;2023-03-01T15:45:30;18.45;;;9.35;;
70927;SDS011;58587;53.034;18.576;2023-03-01T15:48:02;24.17;;;10.60;;
70927;SDS011;58587;53.034;18.576;2023-03-01T15:50:40;24.13;;;10.57;;
70927;SDS011;58587;53.034;18.576;2023-03-01T15:53:11;30.92;;;11.73;;
70927;SDS011;58587;53.034;18.576;2023-03-01T15:55:39;27.92;;;12.20;;
70927;SDS011;58587;53.034;18.576;2023-03-01T15:58:21;25.95;;;11.40;;
70927;SDS011;58587;53.034;18.576;2023-03-01T16:00:48;26.48;;;12.68;;
70927;SDS011;58587;53.034;18.576;2023-03-01T16:03:17;25.30;;;11.57;;
70927;SDS011;58587;53.034;18.576;2023-03-01T16:05:46;27.77;;;12.50;;
70927;SDS011;58587;53.034;18.576;2023-03-01T16:08:12;31.58;;;12.88;;
70927;SDS011;58587;53.034;18.576;2023-03-01T16:10:38;33.10;;;13.60;;
70927;SDS011;58587;53.034;18.576;2023-03-01T16:13:05;31.13;;;13.45;;
70927;SDS011;58587;53.034;18.576;2023-03-01T16:15:31;36.23;;;15.37;;
70927;SDS011;58587;53.034;18.576;2023-03-01T16:17:59;37.35;;;15.07;;
70927;SDS011;58587;53.034;18.576;2023-03-01T16:20:25;38.83;;;16.02;;
70927;SDS011;58587;53.034;18.576;2023-03-01T16:22:51;39.50;;;17.52;;
70927;SDS011;58587;53.034;18.576;2023-03-01T16:25:17;38.15;;;17.13;;
70927;SDS011;58587;53.034;18.576;2023-03-01T16:27:44;41.83;;;17.73;;
70927;SDS011;58587;53.034;18.576;2023-03-01T16:30:11;41.13;;;17.42;;
70927;SDS011;58587;53.034;18.576;2023-03-01T16:32:41;33.67;;;16.63;;
70927;SDS011;58587;53.034;18.576;2023-03-01T16:35:08;34.25;;;15.00;;
70927;SDS011;58587;53.034;18.576;2023-03-01T16:37:35;34.40;;;15.05;;
70927;SDS011;58587;53.034;18.576;2023-03-01T16:40:01;38.25;;;17.10;;
70927;SDS011;58587;53.034;18.576;2023-03-01T16:42:32;41.22;;;18.02;;
70927;SDS011;58587;53.034;18.576;2023-03-01T16:44:58;38.33;;;17.67;;
70927;SDS011;58587;53.034;18.576;2023-03-01T16:47:24;42.30;;;19.40;;
70927;SDS011;58587;53.034;18.576;2023-03-01T16:49:52;45.13;;;21.13;;
70927;SDS011;58587;53.034;18.576;2023-03-01T16:52:18;45.30;;;20.38;;
70927;SDS011;58587;53.034;18.576;2023-03-01T16:54:43;36.25;;;16.67;;
70927;SDS011;58587;53.034;18.576;2023-03-01T16:57:09;37.43;;;17.33;;
70927;SDS011;58587;53.034;18.576;2023-03-01T16:59:34;37.47;;;16.77;;
70927;SDS011;58587;53.034;18.576;2023-03-01T17:01:59;38.83;;;16.30;;
70927;SDS011;58587;53.034;18.576;2023-03-01T17:04:25;38.07;;;15.73;;
70927;SDS011;58587;53.034;18.576;2023-03-01T17:06:50;39.10;;;15.77;;
70927;SDS011;58587;53.034;18.576;2023-03-01T17:09:15;35.47;;;14.90;;
70927;SDS011;58587;53.034;18.576;2023-03-01T17:11:42;32.92;;;13.98;;
70927;SDS011;58587;53.034;18.576;2023-03-01T17:14:07;31.25;;;13.38;;
70927;SDS011;58587;53.034;18.576;2023-03-01T17:16:33;38.33;;;16.13;;
70927;SDS011;58587;53.034;18.576;2023-03-01T17:18:59;43.13;;;15.68;;
70927;SDS011;58587;53.034;18.576;2023-03-01T17:21:25;42.63;;;17.60;;
70927;SDS011;58587;53.034;18.576;2023-03-01T17:23:50;26.90;;;13.95;;
70927;SDS011;58587;53.034;18.576;2023-03-01T17:26:20;39.53;;;19.73;;
70927;SDS011;58587;53.034;18.576;2023-03-01T17:28:46;151.00;;;62.22;;
70927;SDS011;58587;53.034;18.576;2023-03-01T17:31:15;109.18;;;46.70;;
70927;SDS011;58587;53.034;18.576;2023-03-01T17:33:41;78.15;;;33.83;;
70927;SDS011;58587;53.034;18.576;2023-03-01T17:36:06;64.80;;;27.40;;
70927;SDS011;58587;53.034;18.576;2023-03-01T17:38:31;52.93;;;23.10;;
70927;SDS011;58587;53.034;18.576;2023-03-01T17:41:00;35.67;;;16.33;;
70927;SDS011;58587;53.034;18.576;2023-03-01T17:43:25;25.30;;;11.30;;
70927;SDS011;58587;53.034;18.576;2023-03-01T17:45:51;21.60;;;9.23;;
70927;SDS011;58587;53.034;18.576;2023-03-01T17:48:18;21.75;;;9.88;;
70927;SDS011;58587;53.034;18.576;2023-03-01T17:50:44;18.73;;;8.55;;
70927;SDS011;58587;53.034;18.576;2023-03-01T17:53:10;18.67;;;8.57;;
70927;SDS011;58587;53.034;18.576;2023-03-01T17:55:36;27.83;;;11.63;;
70927;SDS011;58587;53.034;18.576;2023-03-01T17:58:02;48.50;;;19.25;;
70927;SDS011;58587;53.034;18.576;2023-03-01T18:00:29;40.27;;;17.57;;
70927;SDS011;58587;53.034;18.576;2023-03-01T18:02:54;39.70;;;17.77;;
70927;SDS011;58587;53.034;18.576;2023-03-01T18:05:20;39.40;;;18.67;;
70927;SDS011;58587;53.034;18.576;2023-03-01T18:07:45;38.33;;;16.60;;
70927;SDS011;58587;53.034;18.576;2023-03-01T18:10:10;31.25;;;13.05;;
70927;SDS011;58587;53.034;18.576;2023-03-01T18:12:36;22.08;;;10.18;;
70927;SDS011;58587;53.034;18.576;2023-03-01T18:15:02;19.17;;;8.83;;
70927;SDS011;58587;53.034;18.576;2023-03-01T18:17:28;19.92;;;9.05;;
70927;SDS011;58587;53.034;18.576;2023-03-01T18:19:53;19.43;;;8.23;;
70927;SDS011;58587;53.034;18.576;2023-03-01T18:22:20;20.45;;;8.95;;
70927;SDS011;58587;53.034;18.576;2023-03-01T18:24:46;28.27;;;11.63;;
70927;SDS011;58587;53.034;18.576;2023-03-01T18:27:11;40.00;;;16.50;;
70927;SDS011;58587;53.034;18.576;2023-03-01T18:29:36;39.13;;;17.33;;
70927;SDS011;58587;53.034;18.576;2023-03-01T18:32:02;25.93;;;12.33;;
70927;SDS011;58587;53.034;18.576;2023-03-01T18:34:28;33.78;;;12.93;;
70927;SDS011;58587;53.034;18.576;2023-03-01T18:36:53;45.27;;;17.73;;
70927;SDS011;58587;53.034;18.576;2023-03-01T18:39:20;42.33;;;16.00;;
70927;SDS011;58587;53.034;18.576;2023-03-01T18:41:46;37.65;;;14.38;;
70927;SDS011;58587;53.034;18.576;2023-03-01T18:44:12;105.82;;;37.15;;
70927;SDS011;58587;53.034;18.576;2023-03-01T18:46:37;87.03;;;30.75;;
70927;SDS011;58587;53.034;18.576;2023-03-01T18:49:03;91.50;;;35.33;;
70927;SDS011;58587;53.034;18.576;2023-03-01T18:51:30;63.95;;;27.65;;
70927;SDS011;58587;53.034;18.576;2023-03-01T18:53:55;60.70;;;26.70;;
70927;SDS011;58587;53.034;18.576;2023-03-01T18:56:24;63.53;;;29.00;;
70927;SDS011;58587;53.034;18.576;2023-03-01T18:58:51;56.42;;;24.00;;
70927;SDS011;58587;53.034;18.576;2023-03-01T19:01:17;42.87;;;20.43;;
70927;SDS011;58587;53.034;18.576;2023-03-01T19:03:47;37.00;;;16.55;;
70927;SDS011;58587;53.034;18.576;2023-03-01T19:06:13;31.63;;;14.13;;
70927;SDS011;58587;53.034;18.576;2023-03-01T19:08:38;24.58;;;11.65;;
70927;SDS011;58587;53.034;18.576;2023-03-01T19:11:06;29.65;;;13.07;;
70927;SDS011;58587;53.034;18.576;2023-03-01T19:13:35;50.67;;;19.03;;
70927;SDS011;58587;53.034;18.576;2023-03-01T19:18:33;36.72;;;13.40;;
70927;SDS011;58587;53.034;18.576;2023-03-01T19:20:59;26.33;;;11.35;;
70927;SDS011;58587;53.034;18.576;2023-03-01T19:23:26;23.35;;;10.55;;
70927;SDS011;58587;53.034;18.576;2023-03-01T19:26:03;18.13;;;10.10;;
70927;SDS011;58587;53.034;18.576;2023-03-01T19:28:31;32.03;;;15.23;;
70927;SDS011;58587;53.034;18.576;2023-03-01T19:31:00;29.38;;;13.15;;
70927;SDS011;58587;53.034;18.576;2023-03-01T19:33:28;33.13;;;16.52;;
70927;SDS011;58587;53.034;18.576;2023-03-01T19:35:54;48.63;;;20.92;;
70927;SDS011;58587;53.034;18.576;2023-03-01T19:38:20;52.87;;;24.10;;
70927;SDS011;58587;53.034;18.576;2023-03-01T19:40:46;70.00;;;27.83;;
70927;SDS011;58587;53.034;18.576;2023-03-01T19:43:11;94.28;;;32.35;;
70927;SDS011;58587;53.034;18.576;2023-03-01T19:45:36;89.32;;;32.33;;
70927;SDS011;58587;53.034;18.576;2023-03-01T19:48:02;111.07;;;37.13;;
70927;SDS011;58587;53.034;18.576;2023-03-01T19:50:27;150.87;;;47.87;;
70927;SDS011;58587;53.034;18.576;2023-03-01T19:52:53;161.63;;;53.07;;
70927;SDS011;58587;53.034;18.576;2023-03-01T19:55:18;161.30;;;54.37;;
70927;SDS011;58587;53.034;18.576;2023-03-01T19:57:43;140.70;;;46.80;;
70927;SDS011;58587;53.034;18.576;2023-03-01T20:00:09;173.07;;;57.63;;
70927;SDS011;58587;53.034;18.576;2023-03-01T20:02:34;171.30;;;60.17;;
70927;SDS011;58587;53.034;18.576;2023-03-01T20:05:00;185.30;;;61.03;;
70927;SDS011;58587;53.034;18.576;2023-03-01T20:07:25;183.37;;;62.60;;
70927;SDS011;58587;53.034;18.576;2023-03-01T20:09:50;178.37;;;62.97;;
70927;SDS011;58587;53.034;18.576;2023-03-01T20:12:16;189.00;;;63.58;;
70927;SDS011;58587;53.034;18.576;2023-03-01T20:14:43;166.00;;;59.93;;
70927;SDS011;58587;53.034;18.576;2023-03-01T20:17:09;151.82;;;54.30;;
70927;SDS011;58587;53.034;18.576;2023-03-01T20:19:34;155.80;;;53.30;;
70927;SDS011;58587;53.034;18.576;2023-03-01T20:21:59;148.27;;;51.00;;
70927;SDS011;58587;53.034;18.576;2023-03-01T20:24:25;145.07;;;50.10;;
70927;SDS011;58587;53.034;18.576;2023-03-01T20:26:50;157.90;;;53.20;;
70927;SDS011;58587;53.034;18.576;2023-03-01T20:29:15;146.63;;;48.90;;
70927;SDS011;58587;53.034;18.576;2023-03-01T20:31:41;139.93;;;48.20;;
70927;SDS011;58587;53.034;18.576;2023-03-01T20:34:06;125.30;;;41.60;;
70927;SDS011;58587;53.034;18.576;2023-03-01T20:36:32;126.43;;;42.87;;
70927;SDS011;58587;53.034;18.576;2023-03-01T20:38:58;117.28;;;42.83;;
70927;SDS011;58587;53.034;18.576;2023-03-01T20:41:23;111.80;;;37.93;;
70927;SDS011;58587;53.034;18.576;2023-03-01T20:43:52;96.50;;;31.98;;
70927;SDS011;58587;53.034;18.576;2023-03-01T20:46:20;36.08;;;14.52;;
70927;SDS011;58587;53.034;18.576;2023-03-01T20:48:48;37.60;;;14.57;;
70927;SDS011;58587;53.034;18.576;2023-03-01T20:51:15;42.57;;;15.20;;
70927;SDS011;58587;53.034;18.576;2023-03-01T20:53:41;41.25;;;16.30;;
70927;SDS011;58587;53.034;18.576;2023-03-01T20:56:10;37.37;;;13.93;;
70927;SDS011;58587;53.034;18.576;2023-03-01T20:58:37;36.42;;;13.95;;
70927;SDS011;58587;53.034;18.576;2023-03-01T21:01:03;42.80;;;15.43;;
70927;SDS011;58587;53.034;18.576;2023-03-01T21:03:31;35.00;;;14.07;;
70927;SDS011;58587;53.034;18.576;2023-03-01T21:05:57;41.83;;;15.35;;
70927;SDS011;58587;53.034;18.576;2023-03-01T21:08:23;37.63;;;15.57;;
70927;SDS011;58587;53.034;18.576;2023-03-01T21:10:52;82.10;;;30.70;;
70927;SDS011;58587;53.034;18.576;2023-03-01T21:13:18;87.65;;;31.73;;
70927;SDS011;58587;53.034;18.576;2023-03-01T21:15:51;161.77;;;53.97;;
70927;SDS011;58587;53.034;18.576;2023-03-01T21:18:21;117.80;;;44.15;;
70927;SDS011;58587;53.034;18.576;2023-03-01T21:20:47;77.05;;;30.92;;
70927;SDS011;58587;53.034;18.576;2023-03-01T21:23:12;48.88;;;20.80;;
70927;SDS011;58587;53.034;18.576;2023-03-01T21:25:38;51.50;;;20.35;;
70927;SDS011;58587;53.034;18.576;2023-03-01T21:28:03;73.60;;;33.73;;
70927;SDS011;58587;53.034;18.576;2023-03-01T21:30:28;75.57;;;34.37;;
70927;SDS011;58587;53.034;18.576;2023-03-01T21:32:54;63.70;;;28.95;;
70927;SDS011;58587;53.034;18.576;2023-03-01T21:35:20;59.43;;;27.63;;
70927;SDS011;58587;53.034;18.576;2023-03-01T21:37:45;55.73;;;26.93;;
70927;SDS011;58587;53.034;18.576;2023-03-01T21:40:11;61.27;;;30.17;;
70927;SDS011;58587;53.034;18.576;2023-03-01T21:42:37;56.58;;;26.08;;
70927;SDS011;58587;53.034;18.576;2023-03-01T21:45:03;51.75;;;22.95;;
70927;SDS011;58587;53.034;18.576;2023-03-01T21:47:29;41.15;;;17.38;;
70927;SDS011;58587;53.034;18.576;2023-03-01T21:49:54;47.83;;;18.35;;
70927;SDS011;58587;53.034;18.576;2023-03-01T21:52:19;38.93;;;15.57;;
70927;SDS011;58587;53.034;18.576;2023-03-01T21:54:44;39.57;;;16.00;;
70927;SDS011;58587;53.034;18.576;2023-03-01T21:57:10;37.87;;;17.83;;
70927;SDS011;58587;53.034;18.576;2023-03-01T21:59:36;35.20;;;15.10;;
70927;SDS011;58587;53.034;18.576;2023-03-01T22:02:02;35.00;;;13.70;;
70927;SDS011;58587;53.034;18.576;2023-03-01T22:04:27;29.07;;;13.07;;
70927;SDS011;58587;53.034;18.576;2023-03-01T22:06:52;31.70;;;14.05;;
70927;SDS011;58587;53.034;18.576;2023-03-01T22:09:19;32.42;;;13.23;;
70927;SDS011;58587;53.034;18.576;2023-03-01T22:11:46;32.67;;;13.88;;
70927;SDS011;58587;53.034;18.576;2023-03-01T22:14:18;35.10;;;13.33;;
70927;SDS011;58587;53.034;18.576;2023-03-01T22:16:44;35.13;;;13.40;;
70927;SDS011;58587;53.034;18.576;2023-03-01T22:19:12;34.30;;;13.75;;
70927;SDS011;58587;53.034;18.576;2023-03-01T22:21:39;38.00;;;14.73;;
70927;SDS011;58587;53.034;18.576;2023-03-01T22:55:01;31.02;;;13.50;;
70927;SDS011;58587;53.034;18.576;2023-03-01T22:57:26;35.47;;;14.60;;
